createdAt,value
2024-01-18T04:21:20.406Z,50.00
2024-01-18T04:22:20.374Z,50.00
2024-01-18T04:23:20.380Z,50.00
2024-01-18T04:24:20.432Z,50.00
2024-01-18T04:25:20.374Z,50.00
2024-01-18T04:26:20.376Z,50.36
2024-01-18T04:27:20.429Z,49.62
2024-01-18T04:28:20.396Z,50.00
2024-01-18T04:29:20.404Z,49.67
2024-01-18T04:30:20.429Z,50.70
2024-01-18T04:31:27.599Z,50.00
2024-01-18T04:32:27.633Z,50.00
2024-01-18T04:33:27.624Z,50.00
2024-01-18T04:34:27.636Z,50.00
2024-01-18T04:35:27.576Z,50.00
2024-01-18T04:36:27.651Z,52.27
2024-01-18T04:37:27.597Z,51.63
2024-01-18T04:38:27.571Z,52.34
2024-01-18T04:39:27.650Z,50.62
2024-01-18T04:40:27.597Z,50.95
2024-01-18T04:41:27.586Z,50.54
2024-01-18T04:42:27.603Z,51.10
2024-01-18T04:43:27.582Z,51.48
2024-01-18T04:44:27.596Z,51.70
2024-01-18T04:45:27.673Z,52.22
2024-01-18T04:46:27.626Z,51.43
2024-01-18T04:47:27.615Z,52.96
2024-01-18T04:48:27.616Z,51.40
2024-01-18T04:49:27.641Z,50.46
2024-01-18T04:50:27.598Z,51.82
2024-01-18T04:51:27.626Z,51.51
2024-01-18T04:52:27.599Z,50.97
2024-01-18T04:53:27.622Z,50.02
2024-01-18T04:54:27.672Z,50.00
2024-01-18T04:55:27.579Z,52.34
2024-01-18T04:56:27.600Z,52.05
2024-01-18T04:57:27.638Z,52.24
2024-01-18T04:58:27.631Z,50.43
2024-01-18T04:59:27.627Z,52.02
2024-01-18T05:00:27.633Z,52.17
2024-01-18T05:01:27.644Z,52.04
2024-01-18T05:02:27.642Z,52.63
2024-01-18T05:03:27.670Z,50.41
2024-01-18T05:04:27.731Z,53.13
2024-01-18T05:05:27.841Z,54.17
2024-01-18T05:06:28.476Z,52.50
2024-01-18T05:07:27.884Z,53.97
2024-01-18T05:08:27.967Z,52.10
2024-01-18T05:09:27.968Z,53.48
2024-01-18T05:10:28.029Z,52.66
2024-01-18T05:11:28.105Z,51.40
2024-01-18T05:12:28.168Z,52.46
2024-01-18T05:13:28.198Z,51.09
2024-01-18T05:14:28.295Z,50.27
2024-01-18T05:15:28.382Z,50.25
2024-01-18T05:16:28.366Z,52.65
2024-01-18T05:17:28.480Z,50.70
2024-01-18T05:18:28.563Z,50.97
2024-01-18T05:19:28.598Z,53.91
2024-01-18T05:20:28.624Z,51.35
2024-01-18T05:21:28.711Z,50.69
2024-01-18T05:22:28.721Z,52.30
2024-01-18T05:23:28.803Z,54.25
2024-01-18T05:24:28.893Z,54.38
2024-01-18T05:25:28.903Z,53.85
2024-01-18T05:26:28.977Z,54.47
2024-01-18T05:27:29.105Z,53.49
2024-01-18T05:28:29.083Z,52.24
2024-01-18T05:29:29.151Z,51.62
2024-01-18T05:30:29.256Z,53.83
2024-01-18T05:31:29.251Z,53.69
2024-01-18T05:32:29.355Z,53.54
2024-01-18T05:33:29.553Z,53.52
2024-01-18T05:34:29.529Z,51.98
2024-01-18T05:35:29.509Z,51.50
2024-01-18T05:36:29.612Z,53.51
2024-01-18T05:37:29.602Z,50.73
2024-01-18T05:38:31.639Z,53.96
2024-01-18T05:39:29.716Z,52.68
2024-01-18T05:40:29.657Z,51.96
2024-01-18T05:41:29.703Z,53.25
2024-01-18T05:42:29.726Z,52.16
2024-01-18T05:43:29.673Z,52.96
2024-01-18T05:44:29.682Z,52.85
2024-01-18T05:45:29.678Z,54.72
2024-01-18T05:46:29.681Z,52.88
2024-01-18T05:47:29.695Z,54.85
2024-01-18T05:48:29.707Z,52.33
2024-01-18T05:49:29.729Z,51.96
2024-01-18T05:50:29.687Z,52.46
2024-01-18T05:51:29.701Z,52.21
2024-01-18T05:52:29.692Z,52.42
2024-01-18T05:53:29.682Z,51.20
2024-01-18T05:54:29.722Z,51.54
2024-01-18T05:55:29.673Z,52.07
2024-01-18T05:56:29.704Z,51.41
2024-01-18T05:57:29.743Z,52.30
2024-01-18T05:58:29.681Z,51.87
2024-01-18T05:59:29.700Z,52.01
2024-01-18T06:00:29.784Z,53.48
2024-01-18T06:01:29.701Z,55.92
2024-01-18T06:02:29.721Z,55.89
2024-01-18T06:03:29.733Z,57.26
2024-01-18T06:04:29.765Z,55.03
2024-01-18T06:05:29.667Z,54.49
2024-01-18T06:06:29.751Z,55.13
2024-01-18T06:07:29.739Z,54.81
2024-01-18T06:08:29.727Z,54.22
2024-01-18T06:09:29.802Z,54.55
2024-01-18T06:10:29.827Z,54.01
2024-01-18T06:11:29.838Z,56.88
2024-01-18T06:12:30.012Z,53.95
2024-01-18T06:13:29.966Z,56.28
2024-01-18T06:14:30.027Z,52.61
2024-01-18T06:15:30.058Z,60.60
2024-01-18T06:16:30.089Z,63.20
2024-01-18T06:17:30.274Z,62.54
2024-01-18T06:18:30.377Z,67.40
2024-01-18T06:19:30.368Z,68.59
2024-01-18T06:20:30.283Z,68.04
2024-01-18T06:21:30.350Z,69.07
2024-01-18T06:22:30.372Z,72.59
2024-01-18T06:23:30.433Z,73.21
2024-01-18T06:24:30.659Z,76.07
2024-01-18T06:25:30.492Z,79.92
2024-01-18T06:26:30.535Z,82.88
2024-01-18T06:27:30.662Z,82.44
2024-01-18T06:28:30.621Z,83.57
2024-01-18T06:29:30.659Z,87.64
2024-01-18T06:30:30.724Z,88.97
2024-01-18T06:31:30.764Z,92.41
2024-01-18T06:32:30.803Z,93.96
2024-01-18T06:33:31.008Z,95.54
2024-01-18T06:34:30.920Z,97.87
2024-01-18T06:35:30.934Z,100.88
2024-01-18T06:36:31.109Z,99.88
2024-01-18T06:37:31.039Z,99.77
2024-01-18T06:38:31.079Z,101.18
2024-01-18T06:39:31.198Z,106.13
2024-01-18T06:40:31.194Z,109.26
2024-01-18T06:41:31.258Z,109.66
2024-01-18T06:42:31.314Z,113.09
2024-01-18T06:43:31.298Z,116.00
2024-01-18T06:44:31.358Z,120.41
2024-01-18T06:45:31.462Z,119.05
2024-01-18T06:46:31.496Z,124.59
2024-01-18T06:47:31.480Z,124.79
2024-01-18T06:48:31.556Z,125.87
2024-01-18T06:49:31.624Z,138.17
2024-01-18T06:50:31.584Z,141.67
2024-01-18T06:51:31.694Z,142.72
2024-01-18T06:52:31.633Z,142.16
2024-01-18T06:53:31.798Z,144.40
2024-01-18T06:54:31.773Z,145.61
2024-01-18T06:55:31.756Z,150.44
2024-01-18T06:56:31.797Z,151.66
2024-01-18T06:57:31.818Z,157.35
2024-01-18T06:58:31.862Z,160.21
2024-01-18T06:59:31.829Z,161.06
2024-01-18T07:00:32.119Z,161.71
2024-01-18T07:01:31.945Z,164.30
2024-01-18T07:02:31.919Z,167.55
2024-01-18T07:03:31.942Z,170.34
2024-01-18T07:04:31.984Z,171.88
2024-01-18T07:05:31.962Z,172.28
2024-01-18T07:06:32.028Z,174.71
2024-01-18T07:07:31.992Z,174.41
2024-01-18T07:08:32.019Z,172.44
2024-01-18T07:09:32.049Z,177.01
2024-01-18T07:10:32.005Z,179.79
2024-01-18T07:11:32.015Z,182.09
2024-01-18T07:12:32.057Z,181.94
2024-01-18T07:13:32.028Z,183.89
2024-01-18T07:14:34.375Z,181.75
2024-01-18T07:15:32.124Z,184.93
2024-01-18T07:16:32.060Z,184.31
2024-01-18T07:17:32.239Z,184.54
2024-01-18T07:18:32.083Z,185.66
2024-01-18T07:19:32.144Z,185.91
2024-01-18T07:20:32.083Z,185.33
2024-01-18T07:21:32.110Z,186.60
2024-01-18T07:22:32.078Z,187.73
2024-01-18T07:23:32.067Z,186.09
2024-01-18T07:24:32.205Z,185.20
2024-01-18T07:25:32.052Z,190.08
2024-01-18T07:26:32.062Z,189.45
2024-01-18T07:27:32.105Z,189.41
2024-01-18T07:28:32.057Z,190.51
2024-01-18T07:29:32.080Z,189.04
2024-01-18T07:30:32.073Z,189.34
2024-01-18T07:31:32.071Z,190.58
2024-01-18T07:32:32.093Z,192.25
2024-01-18T07:33:32.226Z,190.66
2024-01-18T07:34:32.212Z,191.84
2024-01-18T07:35:32.067Z,192.36
2024-01-18T07:36:32.176Z,192.03
2024-01-18T07:37:32.075Z,192.24
2024-01-18T07:38:32.095Z,191.59
2024-01-18T07:39:32.107Z,191.86
2024-01-18T07:40:32.075Z,191.62
2024-01-18T07:41:32.078Z,192.64
2024-01-18T07:42:32.170Z,191.92
2024-01-18T07:43:32.101Z,190.88
2024-01-18T07:44:32.091Z,190.75
2024-01-18T07:45:32.113Z,191.68
2024-01-18T07:46:32.093Z,191.50
2024-01-18T07:47:32.099Z,188.64
2024-01-18T07:48:32.102Z,189.89
2024-01-18T07:49:32.333Z,188.01
2024-01-18T07:50:35.874Z,188.50
2024-01-18T07:51:33.092Z,187.83
2024-01-18T07:52:32.088Z,186.61
2024-01-18T07:53:32.071Z,183.39
2024-01-18T07:54:32.154Z,182.84
2024-01-18T07:55:32.200Z,182.09
2024-01-18T07:56:32.100Z,181.31
2024-01-18T07:57:32.091Z,181.63
2024-01-18T07:58:32.102Z,181.20
2024-01-18T07:59:32.094Z,181.85
2024-01-18T08:00:32.905Z,180.76
2024-01-18T08:01:35.686Z,181.55
2024-01-18T08:02:33.255Z,181.64
2024-01-18T08:03:32.309Z,180.52
2024-01-18T08:04:32.294Z,180.45
2024-01-18T08:05:32.303Z,178.85
2024-01-18T08:06:32.352Z,180.54
2024-01-18T08:07:32.260Z,181.07
2024-01-18T08:08:32.792Z,179.32
2024-01-18T08:09:32.384Z,180.46
2024-01-18T08:10:32.242Z,180.02
2024-01-18T08:11:32.266Z,181.27
2024-01-18T08:12:32.419Z,178.31
2024-01-18T08:13:32.385Z,180.58
2024-01-18T08:14:32.443Z,179.59
2024-01-18T08:15:32.527Z,178.13
2024-01-18T08:16:32.521Z,177.71
2024-01-18T08:17:32.722Z,178.11
2024-01-18T08:18:32.776Z,178.34
2024-01-18T08:19:32.905Z,177.84
2024-01-18T08:20:32.755Z,178.27
2024-01-18T08:21:32.891Z,178.00
2024-01-18T08:22:32.831Z,177.54
2024-01-18T08:23:32.890Z,177.63
2024-01-18T08:24:32.942Z,178.27
2024-01-18T08:25:33.003Z,179.21
2024-01-18T08:26:33.029Z,179.29
2024-01-18T08:27:33.145Z,178.11
2024-01-18T08:28:33.134Z,177.07
2024-01-18T08:29:33.181Z,178.68
2024-01-18T08:30:33.260Z,178.52
2024-01-18T08:31:33.264Z,177.80
2024-01-18T08:33:00.972Z,50.00
2024-01-18T08:34:00.981Z,50.00
2024-01-18T08:35:00.921Z,50.00
2024-01-18T08:36:00.939Z,50.00
2024-01-18T08:37:00.962Z,50.00
2024-01-18T08:38:00.905Z,51.28
2024-01-18T08:39:01.013Z,51.83
2024-01-18T08:40:01.060Z,51.43
2024-01-18T08:41:00.910Z,51.04
2024-01-18T08:42:00.948Z,50.45
2024-01-18T08:43:00.929Z,50.00
2024-01-18T08:44:00.943Z,50.54
2024-01-18T08:45:00.924Z,51.75
2024-01-18T08:46:00.969Z,50.90
2024-01-18T08:47:00.906Z,50.00
2024-01-18T08:48:00.957Z,50.00
2024-01-18T08:49:00.996Z,50.42
2024-01-18T08:50:00.949Z,51.04
2024-01-18T08:51:01.048Z,51.49
2024-01-18T08:52:00.984Z,50.48
2024-01-18T08:53:00.930Z,52.65
2024-01-18T08:54:00.949Z,53.66
2024-01-18T08:55:00.948Z,54.99
2024-01-18T08:56:00.932Z,57.70
2024-01-18T08:57:00.947Z,59.78
2024-01-18T08:58:00.973Z,61.42
2024-01-18T08:59:00.973Z,63.62
2024-01-18T09:00:01.040Z,61.56
2024-01-18T09:01:01.124Z,64.56
2024-01-18T09:02:06.931Z,64.50
2024-01-18T09:03:02.133Z,64.64
2024-01-18T09:04:01.076Z,65.05
2024-01-18T09:05:01.042Z,65.92
2024-01-18T09:06:01.000Z,66.99
2024-01-18T09:07:01.056Z,68.85
2024-01-18T09:08:03.759Z,69.14
2024-01-18T09:09:01.033Z,69.29
2024-01-18T09:10:00.970Z,69.88
2024-01-18T09:11:01.029Z,70.51
2024-01-18T09:12:00.961Z,71.46
2024-01-18T09:13:00.951Z,74.70
2024-01-18T09:14:00.949Z,75.48
2024-01-18T09:15:00.969Z,77.32
2024-01-18T09:16:01.011Z,76.76
2024-01-18T09:17:00.983Z,77.10
2024-01-18T09:18:00.993Z,78.41
2024-01-18T09:19:10.780Z,79.47
2024-01-18T09:20:02.137Z,79.59
2024-01-18T09:21:01.187Z,79.98
2024-01-18T09:22:01.000Z,81.27
2024-01-18T09:23:09.078Z,82.81
2024-01-18T09:24:01.996Z,79.79
2024-01-18T09:25:01.129Z,80.60
2024-01-18T09:26:01.001Z,81.83
2024-01-18T09:27:00.998Z,84.32
2024-01-18T09:28:00.989Z,86.58
2024-01-18T09:29:01.002Z,89.68
2024-01-18T09:30:01.032Z,90.17
2024-01-18T09:31:01.212Z,90.19
2024-01-18T09:32:01.004Z,90.22
2024-01-18T09:33:01.014Z,91.01
2024-01-18T09:34:01.057Z,91.08
2024-01-18T09:35:01.064Z,94.06
2024-01-18T09:36:00.990Z,92.72
2024-01-18T09:37:01.165Z,91.53
2024-01-18T09:38:01.015Z,92.96
2024-01-18T09:39:01.023Z,93.81
2024-01-18T09:40:01.115Z,93.39
2024-01-18T09:41:01.035Z,95.08
2024-01-18T09:42:01.017Z,95.94
2024-01-18T09:43:01.022Z,106.57
2024-01-18T09:44:00.982Z,105.26
2024-01-18T09:45:01.039Z,104.55
2024-01-18T09:46:01.024Z,103.19
2024-01-18T09:47:04.533Z,50.00
2024-01-18T09:48:04.593Z,50.00
2024-01-18T09:49:05.123Z,50.00
2024-01-18T09:50:04.584Z,50.00
2024-01-18T09:51:04.542Z,50.00
2024-01-18T09:52:04.526Z,50.41
2024-01-18T09:53:04.561Z,50.95
2024-01-18T09:54:04.608Z,52.36
2024-01-18T09:55:04.628Z,51.95
2024-01-18T09:56:04.554Z,51.92
2024-01-18T09:57:04.536Z,53.08
2024-01-18T09:58:04.553Z,53.68
2024-01-18T09:59:04.546Z,54.88
2024-01-18T10:00:06.537Z,54.59
2024-01-18T10:01:04.676Z,56.46
2024-01-18T10:02:04.559Z,55.73
2024-01-18T10:03:04.575Z,55.98
2024-01-18T10:04:04.550Z,57.01
2024-01-18T10:05:04.585Z,55.92
2024-01-18T10:06:04.600Z,55.64
2024-01-18T10:07:05.434Z,55.17
2024-01-18T10:08:04.737Z,56.55
2024-01-18T10:09:04.576Z,56.50
2024-01-18T10:10:04.570Z,56.31
2024-01-18T10:11:04.574Z,57.27
2024-01-18T10:12:04.582Z,60.85
2024-01-18T10:13:06.207Z,60.12
2024-01-18T10:14:04.564Z,60.46
2024-01-18T10:15:04.604Z,59.49
2024-01-18T10:16:04.578Z,58.64
2024-01-18T10:17:04.610Z,58.05
2024-01-18T10:18:04.660Z,58.15
2024-01-18T10:19:04.705Z,57.25
2024-01-18T10:20:04.621Z,57.67
2024-01-18T10:21:04.583Z,64.05
2024-01-18T10:22:04.599Z,61.52
2024-01-18T10:23:04.967Z,60.56
2024-01-18T10:24:04.592Z,59.60
2024-01-18T10:25:04.610Z,59.31
2024-01-18T10:26:04.701Z,57.94
2024-01-18T10:27:04.793Z,57.92
2024-01-18T10:28:04.870Z,57.13
2024-01-18T10:29:04.994Z,59.52
2024-01-18T10:30:04.967Z,58.40
2024-01-18T10:31:05.024Z,56.93
2024-01-18T10:32:05.157Z,56.76
2024-01-18T10:33:05.228Z,56.29
2024-01-18T10:34:05.385Z,56.49
2024-01-18T10:35:05.483Z,56.79
2024-01-18T10:36:05.375Z,59.34
2024-01-18T10:37:05.441Z,57.59
2024-01-18T10:38:05.506Z,58.21
2024-01-18T10:39:05.596Z,56.41
2024-01-18T10:40:05.654Z,57.17
2024-01-18T10:41:05.704Z,54.62
2024-01-18T10:42:05.891Z,55.62
2024-01-18T10:43:05.867Z,51.20
2024-01-18T10:44:06.744Z,52.21
2024-01-18T10:45:06.250Z,51.46
2024-01-18T10:46:06.084Z,50.95
2024-01-18T10:47:06.130Z,52.31
2024-01-18T10:48:06.251Z,51.95
2024-01-18T10:49:06.341Z,51.47
2024-01-18T10:50:06.394Z,53.69
2024-01-18T10:51:06.469Z,53.70
2024-01-18T10:52:06.493Z,52.44
2024-01-18T10:53:06.538Z,56.03
2024-01-18T10:54:08.711Z,54.79
2024-01-18T10:55:09.117Z,55.22
2024-01-18T10:56:06.779Z,55.33
2024-01-18T10:57:06.684Z,55.52
2024-01-18T10:58:06.609Z,55.98
2024-01-18T10:59:06.573Z,55.56
2024-01-18T11:00:06.661Z,54.36
2024-01-18T11:01:06.718Z,55.16
2024-01-18T11:02:06.614Z,55.80
2024-01-18T11:03:06.678Z,52.67
2024-01-18T11:04:06.612Z,55.19
2024-01-18T11:05:06.653Z,52.71
2024-01-18T11:06:06.691Z,55.39
2024-01-18T11:07:06.756Z,54.70
2024-01-18T11:08:06.630Z,58.52
2024-01-18T11:09:06.685Z,58.05
2024-01-18T11:10:06.610Z,62.98
2024-01-18T11:11:06.627Z,63.73
2024-01-18T11:12:06.829Z,62.48
2024-01-18T11:13:06.634Z,61.78
2024-01-18T11:14:06.597Z,62.18
2024-01-18T11:15:06.728Z,62.05
2024-01-18T11:16:06.661Z,61.35
2024-01-18T11:17:07.598Z,61.68
2024-01-18T11:18:06.765Z,60.80
2024-01-18T11:19:06.724Z,60.31
2024-01-18T11:20:06.696Z,63.55
2024-01-18T11:21:06.633Z,63.66
2024-01-18T11:22:06.654Z,62.37
2024-01-18T11:23:06.749Z,65.50
2024-01-18T11:24:06.758Z,62.23
2024-01-18T11:25:06.643Z,64.48
2024-01-18T11:26:06.700Z,65.00
2024-01-18T11:27:06.766Z,63.68
2024-01-18T11:28:06.696Z,63.51
2024-01-18T11:29:06.733Z,66.25
2024-01-18T11:30:06.691Z,66.51
2024-01-18T11:31:06.831Z,66.18
2024-01-18T11:32:06.844Z,62.23
2024-01-18T11:33:06.696Z,63.48
2024-01-18T11:34:06.747Z,60.77
2024-01-18T11:35:06.733Z,62.50
2024-01-18T11:36:06.764Z,60.96
2024-01-18T11:37:06.671Z,60.90
2024-01-18T11:38:06.646Z,59.88
2024-01-18T11:39:06.694Z,59.30
2024-01-18T11:40:06.667Z,59.58
2024-01-18T11:41:06.676Z,57.56
2024-01-18T11:42:06.685Z,54.38
2024-01-18T11:43:06.795Z,55.57
2024-01-18T11:44:06.809Z,55.50
2024-01-18T11:45:06.890Z,54.20
2024-01-18T11:46:07.156Z,53.54
2024-01-18T11:47:07.032Z,52.00
2024-01-18T11:48:07.134Z,51.83
2024-01-18T11:49:07.303Z,50.63
2024-01-18T11:50:07.384Z,50.86
2024-01-18T11:51:07.267Z,51.30
2024-01-18T11:52:07.364Z,50.45
2024-01-18T11:53:07.414Z,51.12
2024-01-18T11:54:07.622Z,52.09
2024-01-18T11:55:07.568Z,50.62
2024-01-18T11:56:07.645Z,50.54
2024-01-18T11:57:07.735Z,51.71
2024-01-18T11:58:07.717Z,51.01
2024-01-18T11:59:07.753Z,50.52
2024-01-18T12:00:07.907Z,50.28
2024-01-18T12:01:07.841Z,50.00
2024-01-18T12:02:07.776Z,50.04
2024-01-18T12:03:07.886Z,50.32
2024-01-18T12:04:07.880Z,50.47
2024-01-18T12:05:07.874Z,50.90
2024-01-18T12:06:07.852Z,50.21
2024-01-18T12:07:07.968Z,50.41
2024-01-18T12:08:07.848Z,50.41
2024-01-18T12:09:07.996Z,50.30
2024-01-18T12:10:07.879Z,50.31
2024-01-18T12:11:07.864Z,50.59
2024-01-18T12:12:08.097Z,51.17
2024-01-18T12:13:07.881Z,50.30
2024-01-18T12:14:07.937Z,50.15
2024-01-18T12:15:08.125Z,50.17
2024-01-18T12:16:07.890Z,50.42
2024-01-18T12:17:07.899Z,50.66
2024-01-18T12:18:07.978Z,50.00
2024-01-18T12:19:07.965Z,50.17
2024-01-18T12:20:08.055Z,50.28
2024-01-18T12:21:07.934Z,50.00
2024-01-18T12:22:07.941Z,50.05
2024-01-18T12:23:07.935Z,51.18
2024-01-18T12:24:07.990Z,50.45
2024-01-18T12:25:08.002Z,51.01
2024-01-18T12:26:07.963Z,50.14
2024-01-18T12:27:08.005Z,50.43
2024-01-18T12:28:08.008Z,50.39
2024-01-18T12:29:08.028Z,50.02
2024-01-18T12:30:08.098Z,50.60
2024-01-18T12:31:08.064Z,50.81
2024-01-18T12:32:08.091Z,51.46
2024-01-18T12:33:08.151Z,51.00
2024-01-18T12:34:08.123Z,50.76
2024-01-18T12:35:08.124Z,50.64
2024-01-18T12:37:08.170Z,50.13
2024-01-18T12:38:08.158Z,51.66
2024-01-18T12:39:08.206Z,51.13
2024-01-18T12:40:08.194Z,51.18
2024-01-18T12:41:08.272Z,51.23
2024-01-18T12:42:08.220Z,50.94
2024-01-18T12:43:08.247Z,51.74
2024-01-18T12:44:08.251Z,50.54
2024-01-18T12:45:08.270Z,51.92
2024-01-18T12:46:08.369Z,50.84
2024-01-18T12:47:08.296Z,50.07
2024-01-18T12:48:08.504Z,50.13
2024-01-18T12:49:08.457Z,50.81
2024-01-18T12:50:08.448Z,50.67
2024-01-18T12:51:08.343Z,51.67
2024-01-18T12:52:08.392Z,51.40
2024-01-18T12:53:09.658Z,52.86
2024-01-18T12:54:08.414Z,50.38
2024-01-18T12:55:08.418Z,51.82
2024-01-18T12:56:08.433Z,52.55
2024-01-18T12:57:08.413Z,52.94
2024-01-18T12:58:08.465Z,52.94
2024-01-18T12:59:08.475Z,51.58
2024-01-18T13:00:08.507Z,53.98
2024-01-18T13:01:08.649Z,54.91
2024-01-18T13:02:08.529Z,54.06
2024-01-18T13:03:08.527Z,53.49
2024-01-18T13:04:08.594Z,53.19
2024-01-18T13:05:08.581Z,53.40
2024-01-18T13:06:08.648Z,54.03
2024-01-18T13:07:08.669Z,54.02
2024-01-18T13:08:08.731Z,54.00
2024-01-18T13:09:08.645Z,53.83
2024-01-18T13:10:08.639Z,54.33
2024-01-18T13:11:08.658Z,55.17
2024-01-18T13:12:08.708Z,54.93
2024-01-18T13:13:08.699Z,53.98
2024-01-18T13:14:08.718Z,54.92
2024-01-18T13:15:08.756Z,55.99
2024-01-18T13:16:08.810Z,54.06
2024-01-18T13:17:08.814Z,55.31
2024-01-18T13:18:08.873Z,55.10
2024-01-18T13:19:08.906Z,53.80
2024-01-18T13:20:08.991Z,54.49
2024-01-18T13:21:08.889Z,54.21
2024-01-18T13:22:08.934Z,53.17
2024-01-18T13:23:08.936Z,53.43
2024-01-18T13:24:08.961Z,54.13
2024-01-18T13:25:09.037Z,53.38
2024-01-18T13:26:09.017Z,53.01
2024-01-18T13:27:09.046Z,52.55
2024-01-18T13:28:09.075Z,53.76
2024-01-18T13:29:09.134Z,52.98
2024-01-18T13:30:09.144Z,53.22
2024-01-18T13:31:09.178Z,53.21
2024-01-18T13:32:09.212Z,54.78
2024-01-18T13:33:11.472Z,52.60
2024-01-18T13:34:09.253Z,54.38
2024-01-18T13:35:09.345Z,54.26
2024-01-18T13:36:09.250Z,52.58
2024-01-18T13:37:12.960Z,53.40
2024-01-18T13:38:11.942Z,53.59
2024-01-18T13:39:09.236Z,53.53
2024-01-18T13:40:09.258Z,53.62
2024-01-18T13:41:09.250Z,53.92
2024-01-18T13:42:09.243Z,52.49
2024-01-18T13:43:09.232Z,52.20
2024-01-18T13:44:09.265Z,52.41
2024-01-18T13:45:09.247Z,51.40
2024-01-18T13:46:09.304Z,52.07
2024-01-18T13:47:09.245Z,52.34
2024-01-18T13:48:09.330Z,52.84
2024-01-18T13:49:09.273Z,52.25
2024-01-18T13:50:09.351Z,51.39
2024-01-18T13:51:09.256Z,52.64
2024-01-18T13:52:09.297Z,50.46
2024-01-18T13:53:09.248Z,50.00
2024-01-18T13:54:09.261Z,50.75
2024-01-18T13:55:09.445Z,50.75
2024-01-18T13:56:10.448Z,51.43
2024-01-18T13:57:09.228Z,54.20
2024-01-18T13:58:09.276Z,52.65
2024-01-18T13:59:09.271Z,53.74
2024-01-18T14:00:09.250Z,52.07
2024-01-18T14:01:09.328Z,53.21
2024-01-18T14:02:09.256Z,52.41
2024-01-18T14:03:09.286Z,52.94
2024-01-18T14:04:09.260Z,52.25
2024-01-18T14:05:09.289Z,50.58
2024-01-18T14:06:09.330Z,53.08
2024-01-18T14:07:09.492Z,51.49
2024-01-18T14:08:10.114Z,51.35
2024-01-18T14:09:09.393Z,51.22
2024-01-18T14:10:09.505Z,51.52
2024-01-18T14:11:12.438Z,50.55
2024-01-18T14:12:09.493Z,50.63
2024-01-18T14:13:09.494Z,50.63
2024-01-18T14:14:09.484Z,50.31
2024-01-18T14:15:09.514Z,48.98
2024-01-18T14:16:10.731Z,48.55
2024-01-18T14:17:09.506Z,50.96
2024-01-18T14:18:09.561Z,52.73
2024-01-18T14:19:09.557Z,52.97
2024-01-18T14:20:09.643Z,50.78
2024-01-18T14:21:09.705Z,52.23
2024-01-18T14:22:09.644Z,54.87
2024-01-18T14:23:09.490Z,54.41
2024-01-18T14:24:10.166Z,52.25
2024-01-18T14:25:09.533Z,53.50
2024-01-18T14:26:09.504Z,51.97
2024-01-18T14:27:09.503Z,54.00
2024-01-18T14:28:09.623Z,52.26
2024-01-18T14:29:09.573Z,52.86
2024-01-18T14:30:09.597Z,51.55
2024-01-18T14:31:09.675Z,52.78
2024-01-18T14:32:09.657Z,54.44
2024-01-18T14:33:09.776Z,54.45
2024-01-18T14:34:09.815Z,55.69
2024-01-18T14:35:09.835Z,55.77
2024-01-18T14:36:09.812Z,56.49
2024-01-18T14:37:09.892Z,56.49
2024-01-18T14:38:09.908Z,55.91
2024-01-18T14:39:09.927Z,53.57
2024-01-18T14:40:10.005Z,56.28
2024-01-18T14:41:10.021Z,57.26
2024-01-18T14:42:10.053Z,56.93
2024-01-18T14:43:10.095Z,56.15
2024-01-18T14:44:10.134Z,57.66
2024-01-18T14:45:10.203Z,58.38
2024-01-18T14:46:10.267Z,57.33
2024-01-18T14:47:10.271Z,58.42
2024-01-18T14:48:10.376Z,60.92
2024-01-18T14:49:10.405Z,60.62
2024-01-18T14:50:10.442Z,61.54
2024-01-18T14:51:10.467Z,61.75
2024-01-18T14:52:10.469Z,63.14
2024-01-18T14:53:10.546Z,64.04
2024-01-18T14:54:10.531Z,62.26
2024-01-18T14:55:10.616Z,62.58
2024-01-18T14:56:10.635Z,61.97
2024-01-18T14:57:10.679Z,63.90
2024-01-18T14:58:10.760Z,62.72
2024-01-18T14:59:10.771Z,63.35
2024-01-18T15:00:10.802Z,63.77
2024-01-18T15:01:10.917Z,64.41
2024-01-18T15:02:10.879Z,64.04
2024-01-18T15:03:10.956Z,65.81
2024-01-18T15:04:11.094Z,66.45
2024-01-18T15:05:11.194Z,65.23
2024-01-18T15:06:11.038Z,66.54
2024-01-18T15:07:11.161Z,66.78
2024-01-18T15:08:11.248Z,66.15
2024-01-18T15:09:11.200Z,64.93
2024-01-18T15:10:11.307Z,65.35
2024-01-18T15:11:11.307Z,64.85
2024-01-18T15:12:11.317Z,66.68
2024-01-18T15:13:11.395Z,66.89
2024-01-18T15:14:11.457Z,65.72
2024-01-18T15:15:11.521Z,67.91
2024-01-18T15:16:13.013Z,67.49
2024-01-18T15:17:11.509Z,69.90
2024-01-18T15:18:11.538Z,70.31
2024-01-18T15:19:17.222Z,68.78
2024-01-18T15:20:12.680Z,68.98
2024-01-18T15:21:11.511Z,69.10
2024-01-18T15:22:11.538Z,69.95
2024-01-18T15:23:12.292Z,69.55
2024-01-18T15:24:11.543Z,70.13
2024-01-18T15:25:11.620Z,70.22
2024-01-18T15:26:11.517Z,69.93
2024-01-18T15:27:11.573Z,69.30
2024-01-18T15:28:11.554Z,69.63
2024-01-18T15:29:11.525Z,68.08
2024-01-18T15:30:11.527Z,69.85
2024-01-18T15:31:11.547Z,71.26
2024-01-18T15:32:11.641Z,70.80
2024-01-18T15:33:11.903Z,70.60
2024-01-18T15:34:11.768Z,71.34
2024-01-18T15:35:12.086Z,70.54
2024-01-18T15:36:11.788Z,71.79
2024-01-18T15:37:11.891Z,69.76
2024-01-18T15:38:11.908Z,71.72
2024-01-18T15:39:11.936Z,71.39
2024-01-18T15:40:12.016Z,70.69
2024-01-18T15:41:12.022Z,70.47
2024-01-18T15:42:12.077Z,71.12
2024-01-18T15:43:12.110Z,71.30
2024-01-18T15:44:12.179Z,71.24
2024-01-18T15:45:12.251Z,70.86
2024-01-18T15:46:12.262Z,71.48
2024-01-18T15:47:12.321Z,72.25
2024-01-18T15:48:12.372Z,72.43
2024-01-18T15:49:12.428Z,72.94
2024-01-18T15:50:12.512Z,71.99
2024-01-18T15:51:12.464Z,72.37
2024-01-18T15:52:12.539Z,70.98
2024-01-18T15:53:12.557Z,72.24
2024-01-18T15:54:12.647Z,71.13
2024-01-18T15:55:12.812Z,71.54
2024-01-18T15:56:12.707Z,72.34
2024-01-18T15:57:12.743Z,71.86
2024-01-18T15:58:12.777Z,72.83
2024-01-18T15:59:12.865Z,73.96
2024-01-18T16:00:12.919Z,71.33
2024-01-18T16:01:13.115Z,73.38
2024-01-18T16:02:12.969Z,75.71
2024-01-18T16:03:12.988Z,75.97
2024-01-18T16:04:13.094Z,76.11
2024-01-18T16:05:13.194Z,75.54
2024-01-18T16:06:13.194Z,75.29
2024-01-18T16:07:13.166Z,75.14
2024-01-18T16:08:13.232Z,75.36
2024-01-18T16:09:13.281Z,73.97
2024-01-18T16:10:13.392Z,74.82
2024-01-18T16:11:13.355Z,73.85
2024-01-18T16:12:13.508Z,74.44
2024-01-18T16:13:13.436Z,75.44
2024-01-18T16:14:13.485Z,75.94
2024-01-18T16:15:13.638Z,75.47
2024-01-18T16:16:13.619Z,73.28
2024-01-18T16:17:13.622Z,72.45
2024-01-18T16:18:13.680Z,74.95
2024-01-18T16:19:13.814Z,72.98
2024-01-18T16:20:13.791Z,72.43
2024-01-18T16:21:13.860Z,70.97
2024-01-18T16:22:13.880Z,72.02
2024-01-18T16:23:13.921Z,70.24
2024-01-18T16:24:13.975Z,69.73
2024-01-18T16:25:14.014Z,70.18
2024-01-18T16:26:14.069Z,70.88
2024-01-18T16:27:14.148Z,68.76
2024-01-18T16:28:14.203Z,67.60
2024-01-18T16:29:14.202Z,67.50
2024-01-18T16:30:20.207Z,67.51
2024-01-18T16:31:15.342Z,67.65
2024-01-18T16:32:14.269Z,67.92
2024-01-18T16:33:14.422Z,68.69
2024-01-18T16:34:14.338Z,68.29
2024-01-18T16:35:14.332Z,70.19
2024-01-18T16:36:14.338Z,70.17
2024-01-18T16:37:14.276Z,72.00
2024-01-18T16:38:14.304Z,70.28
2024-01-18T16:39:14.288Z,70.97
2024-01-18T16:40:14.291Z,70.17
2024-01-18T16:41:14.257Z,67.54
2024-01-18T16:42:14.380Z,66.51
2024-01-18T16:43:14.369Z,66.31
2024-01-18T16:44:14.437Z,65.73
2024-01-18T16:45:14.638Z,65.87
2024-01-18T16:46:14.489Z,64.28
2024-01-18T16:47:14.547Z,64.67
2024-01-18T16:48:14.727Z,64.86
2024-01-18T16:49:14.823Z,65.78
2024-01-18T16:50:14.687Z,64.91
2024-01-18T16:51:14.781Z,65.32
2024-01-18T16:52:14.809Z,63.79
2024-01-18T16:53:14.816Z,65.78
2024-01-18T16:54:14.910Z,65.04
2024-01-18T16:55:14.974Z,65.89
2024-01-18T16:56:14.996Z,62.98
2024-01-18T16:57:22.429Z,63.28
2024-01-18T16:58:16.090Z,63.35
2024-01-18T16:59:15.061Z,63.28
2024-01-18T17:00:15.158Z,63.42
2024-01-18T17:01:15.086Z,62.23
2024-01-18T17:02:15.090Z,61.48
2024-01-18T17:03:15.063Z,60.29
2024-01-18T17:04:15.063Z,60.12
2024-01-18T17:05:15.211Z,60.67
2024-01-18T17:06:15.140Z,61.63
2024-01-18T17:08:15.201Z,60.57
2024-01-18T17:09:15.092Z,60.91
2024-01-18T17:10:15.139Z,61.68
2024-01-18T17:11:20.436Z,61.81
2024-01-18T17:12:16.212Z,61.91